Time;durP1;ratioP1;P1;durP2;ratioP2;P2;SDS_P1;SDS_P2;PMS_P1;PMS_P2;Temp;Humidity;BMP_temperature;BMP_pressure;BME280_temperature;BME280_humidity;BME280_pressure;Samples;Min_cycle;Max_cycle;Signal;HPM_P1;HPM_P2
2023/12/04 00:01:29;;;;;;;25.50;24.00;;;;;;;0.40;100.00;101874.03;4927420;29;20170;-68
2023/12/04 00:03:56;;;;;;;28.42;26.92;;;;;;;0.42;100.00;101879.13;4928273;29;20046;-68
2023/12/04 00:06:25;;;;;;;26.98;25.48;;;;;;;0.35;100.00;101875.31;4927469;29;20074;-68
2023/12/04 00:08:51;;;;;;;25.50;23.90;;;;;;;0.44;100.00;101880.69;4928350;29;20162;-73
2023/12/04 00:11:18;;;;;;;25.73;24.02;;;;;;;0.48;100.00;101886.53;4929243;29;20091;-73
2023/12/04 00:13:45;;;;;;;23.58;21.85;;;;;;;0.36;100.00;101895.25;4928673;29;20127;-73
2023/12/04 00:16:12;;;;;;;24.50;23.02;;;;;;;0.52;100.00;101890.59;4928361;29;20055;-69
2023/12/04 00:18:41;;;;;;;27.55;25.85;;;;;;;0.31;100.00;101894.78;4928573;29;20063;-72
2023/12/04 00:21:07;;;;;;;26.50;24.92;;;;;;;0.25;100.00;101887.38;4928273;29;20060;-73
2023/12/04 00:23:36;;;;;;;26.15;24.65;;;;;;;0.07;100.00;101884.31;4926756;29;20060;-68
2023/12/04 00:26:03;;;;;;;29.20;27.70;;;;;;;0.04;100.00;101885.34;4924976;29;20134;-68
2023/12/04 00:28:30;;;;;;;26.60;25.20;;;;;;;0.05;100.00;101900.06;4925473;29;20056;-69
2023/12/04 00:30:57;;;;;;;25.80;23.92;;;;;;;0.19;100.00;101902.53;4928244;29;20443;-68
2023/12/04 00:33:25;;;;;;;29.83;28.23;;;;;;;0.17;100.00;101909.66;4925241;29;20082;-68
2023/12/04 00:35:52;;;;;;;27.58;26.17;;;;;;;0.43;100.00;101918.25;4922860;29;20142;-68
2023/12/04 00:38:22;;;;;;;27.88;26.38;;;;;;;0.42;100.00;101926.19;4927346;29;20062;-68
2023/12/04 00:40:51;;;;;;;25.20;23.77;;;;;;;0.30;100.00;101927.06;4929072;29;20459;-68
2023/12/04 00:43:18;;;;;;;28.80;27.30;;;;;;;0.21;100.00;101928.56;4926807;29;20063;-68
2023/12/04 00:45:45;;;;;;;32.60;30.90;;;;;;;0.35;100.00;101928.41;4927013;29;20058;-68
2023/12/04 00:48:17;;;;;;;31.83;29.90;;;;;;;0.22;100.00;101927.63;4928952;29;20043;-68
2023/12/04 00:50:45;;;;;;;28.70;27.10;;;;;;;0.20;100.00;101924.28;4926548;29;20051;-68
2023/12/04 00:53:12;;;;;;;38.95;36.95;;;;;;;0.18;100.00;101931.38;4926725;29;20051;-69
2023/12/04 00:55:39;;;;;;;34.50;32.60;;;;;;;0.17;100.00;101933.16;4926631;29;20516;-68
2023/12/04 00:58:08;;;;;;;29.85;28.25;;;;;;;1.64;100.00;101934.56;4926941;29;20063;-68
2023/12/04 01:00:35;;;;;;;31.55;29.83;;;;;;;0.44;100.00;101940.81;4927529;29;20079;-68
2023/12/04 01:03:01;;;;;;;27.33;26.00;;;;;;;0.90;100.00;101934.84;4926747;29;20048;-68
2023/12/04 01:05:28;;;;;;;30.05;28.45;;;;;;;0.79;100.00;101941.84;4926131;29;20062;-73
2023/12/04 01:07:55;;;;;;;34.55;32.75;;;;;;;0.17;100.00;101934.94;4929642;29;20066;-73
2023/12/04 01:10:24;;;;;;;31.80;30.27;;;;;;;0.14;100.00;101938.59;4927980;29;20417;-73
2023/12/04 01:12:51;;;;;;;25.73;24.42;;;;;;;0.93;100.00;101932.97;4927965;29;20056;-73
2023/12/04 01:15:19;;;;;;;29.23;27.77;;;;;;;0.14;100.00;101933.38;4931013;29;20047;-73
2023/12/04 01:17:46;;;;;;;24.30;22.90;;;;;;;0.19;100.00;101931.28;4931479;29;20047;-74
2023/12/04 01:20:13;;;;;;;26.67;24.80;;;;;;;0.27;100.00;101928.13;4932051;29;20520;-73
2023/12/04 01:22:41;;;;;;;28.08;26.58;;;;;;;1.25;100.00;101941.88;4931804;29;20056;-73
2023/12/04 01:25:09;;;;;;;32.35;30.65;;;;;;;0.45;100.00;101945.13;4931712;29;20059;-73
2023/12/04 01:27:37;;;;;;;32.53;30.73;;;;;;;0.40;100.00;101941.16;4931927;29;20062;-74
2023/12/04 01:30:08;;;;;;;28.23;26.73;;;;;;;0.41;100.00;101940.22;4931778;29;20552;-73
2023/12/04 01:32:37;;;;;;;27.60;26.20;;;;;;;0.25;100.00;101934.41;4932196;29;20268;-73
2023/12/04 01:35:06;;;;;;;37.72;35.92;;;;;;;0.25;100.00;101934.41;4927419;29;20056;-68
2023/12/04 01:37:33;;;;;;;37.55;35.75;;;;;;;0.35;100.00;101946.69;4925092;29;20347;-68
2023/12/04 01:40:00;;;;;;;29.90;28.30;;;;;;;0.39;100.00;101949.94;4931043;29;20142;-68
2023/12/04 01:42:27;;;;;;;25.70;24.25;;;;;;;0.53;100.00;101956.81;4931652;29;20059;-68
2023/12/04 01:44:54;;;;;;;22.63;21.33;;;;;;;0.34;100.00;101959.91;4930881;29;20055;-68
2023/12/04 01:47:22;;;;;;;25.05;23.55;;;;;;;0.39;100.00;101963.88;4930320;29;20520;-68
2023/12/04 01:49:50;;;;;;;27.35;25.85;;;;;;;0.52;100.00;101965.59;4931002;29;20400;-68
2023/12/04 01:52:18;;;;;;;28.35;26.85;;;;;;;0.19;100.00;101957.41;4929258;29;20427;-68
2023/12/04 01:54:45;;;;;;;34.80;33.05;;;;;;;0.20;100.00;101964.31;4929138;29;20127;-73
2023/12/04 01:57:12;;;;;;;29.98;28.38;;;;;;;0.33;100.00;101963.44;4930497;29;20052;-73
2023/12/04 01:59:40;;;;;;;29.30;27.50;;;;;;;0.25;100.00;101963.16;4929887;29;20059;-73
2023/12/04 02:02:07;;;;;;;29.88;28.10;;;;;;;1.00;100.00;101966.44;4930095;29;20043;-73
2023/12/04 02:04:34;;;;;;;34.08;32.17;;;;;;;0.28;100.00;101976.00;4929478;29;20055;-73
2023/12/04 02:07:03;;;;;;;31.83;30.13;;;;;;;0.34;100.00;101979.03;4932011;29;20052;-73
2023/12/04 02:09:31;;;;;;;32.22;30.42;;;;;;;0.12;100.00;101976.22;4930549;28;20451;-73
2023/12/04 02:11:59;;;;;;;26.40;24.90;;;;;;;0.21;100.00;101981.66;4931399;29;20052;-73
2023/12/04 02:14:27;;;;;;;27.40;25.75;;;;;;;0.31;100.00;101983.63;4931034;29;20146;-73
2023/12/04 02:16:56;;;;;;;26.00;24.30;;;;;;;0.38;100.00;101990.09;4931029;29;20428;-73
2023/12/04 02:19:23;;;;;;;25.70;24.27;;;;;;;0.45;100.00;101979.09;4930820;29;20047;-73
2023/12/04 02:21:50;;;;;;;27.23;25.63;;;;;;;0.16;100.00;101986.38;4931269;29;20425;-74
2023/12/04 02:24:18;;;;;;;33.10;31.10;;;;;;;0.29;100.00;101996.81;4927828;29;20047;-73
2023/12/04 02:26:51;;;;;;;27.63;25.92;;;;;;;0.19;100.00;102001.84;4929741;29;20056;-73
2023/12/04 02:29:24;;;;;;;27.20;25.50;;;;;;;0.87;100.00;102002.25;4927934;29;20171;-73
2023/12/04 02:31:54;;;;;;;40.72;38.83;;;;;;;0.57;100.00;102002.69;4929028;29;20047;-73
2023/12/04 02:34:25;;;;;;;32.13;30.52;;;;;;;0.54;100.00;102008.97;4931222;29;20493;-73
2023/12/04 02:36:54;;;;;;;34.90;33.10;;;;;;;0.14;100.00;102009.16;4930780;29;20492;-73
2023/12/04 02:39:22;;;;;;;35.42;33.65;;;;;;;0.18;100.00;102008.03;4930192;29;21643;-73
2023/12/04 02:41:50;;;;;;;35.15;33.45;;;;;;;0.09;100.00;102000.81;4930823;29;20051;-69
2023/12/04 02:44:17;;;;;;;35.35;33.65;;;;;;;-0.11;100.00;102004.78;4929580;29;20058;-68
2023/12/04 02:46:44;;;;;;;30.42;28.73;;;;;;;-0.09;100.00;101995.09;4928901;29;20051;-68
2023/12/04 02:49:11;;;;;;;29.08;27.77;;;;;;;0.37;100.00;102011.97;4929693;29;20047;-68
2023/12/04 02:51:41;;;;;;;30.67;29.17;;;;;;;-0.07;100.00;102021.91;4930036;29;20052;-68
2023/12/04 02:54:08;;;;;;;35.08;33.22;;;;;;;-0.15;100.00;102011.19;4928905;29;20432;-68
2023/12/04 02:56:36;;;;;;;29.27;27.88;;;;;;;0.05;100.00;102015.03;4928881;29;20059;-73
2023/12/04 02:59:03;;;;;;;28.83;27.33;;;;;;;-0.02;100.00;102021.63;4929241;29;20043;-73
2023/12/04 03:01:30;;;;;;;34.10;32.50;;;;;;;0.05;100.00;102022.03;4930508;29;20568;-73
2023/12/04 03:03:57;;;;;;;33.83;32.33;;;;;;;-0.10;100.00;102027.34;4929130;29;20056;-73
2023/12/04 03:06:23;;;;;;;43.03;40.92;;;;;;;-0.11;100.00;102017.84;4928761;29;20544;-73
2023/12/04 03:08:51;;;;;;;38.25;36.55;;;;;;;0.85;100.00;102015.47;4929882;29;20058;-73
2023/12/04 03:11:18;;;;;;;35.72;34.13;;;;;;;-0.04;100.00;102029.53;4929956;29;20052;-73
2023/12/04 03:13:46;;;;;;;30.10;28.80;;;;;;;-0.01;100.00;102031.94;4928003;29;20432;-73
2023/12/04 03:16:17;;;;;;;31.83;30.48;;;;;;;-0.01;100.00;102034.56;4928765;29;20074;-73
2023/12/04 03:18:45;;;;;;;34.40;32.90;;;;;;;-0.05;100.00;102035.72;4931052;29;20451;-73
2023/12/04 03:21:12;;;;;;;33.17;31.73;;;;;;;-0.17;100.00;102044.38;4930062;29;20856;-73
2023/12/04 03:23:39;;;;;;;35.85;34.42;;;;;;;-0.34;100.00;102045.50;4929643;29;20051;-73
2023/12/04 03:26:06;;;;;;;27.67;25.88;;;;;;;0.51;100.00;102037.94;4929807;29;20043;-73
2023/12/04 03:28:33;;;;;;;33.33;31.83;;;;;;;-0.16;100.00;102046.03;4929916;29;20047;-73
2023/12/04 03:31:02;;;;;;;34.28;32.67;;;;;;;-0.17;100.00;102043.56;4930075;29;20048;-73
2023/12/04 03:33:29;;;;;;;38.25;36.65;;;;;;;-0.06;100.00;102041.88;4926790;29;20175;-73
2023/12/04 03:35:56;;;;;;;38.70;37.10;;;;;;;-0.05;100.00;102042.72;4927031;29;20504;-73
2023/12/04 03:38:23;;;;;;;35.70;34.20;;;;;;;-0.29;100.00;102050.44;4929238;29;20055;-73
2023/12/04 03:40:51;;;;;;;38.75;37.15;;;;;;;-0.29;100.00;102053.03;4928724;29;20119;-73
2023/12/04 03:43:18;;;;;;;32.90;31.15;;;;;;;-0.21;100.00;102049.91;4927557;29;20439;-73
2023/12/04 03:45:45;;;;;;;35.75;33.92;;;;;;;-0.21;100.00;102056.00;4926951;29;20055;-73
2023/12/04 03:48:13;;;;;;;25.00;23.88;;;;;;;-0.20;100.00;102060.25;4927575;29;20052;-73
2023/12/04 03:50:40;;;;;;;23.27;22.08;;;;;;;-0.01;100.00;102055.44;4920986;29;20472;-73
2023/12/04 03:53:07;;;;;;;24.10;23.00;;;;;;;-0.07;100.00;102058.47;4924391;29;20060;-73
2023/12/04 03:55:34;;;;;;;27.38;26.13;;;;;;;-0.01;100.00;102052.84;4923403;29;20062;-73
2023/12/04 03:58:00;;;;;;;37.53;35.97;;;;;;;-0.17;100.00;102059.22;4924776;29;20156;-73
2023/12/04 04:00:27;;;;;;;31.13;29.77;;;;;;;-0.18;100.00;102061.00;4922881;29;20854;-73
2023/12/04 04:02:54;;;;;;;29.98;28.67;;;;;;;-0.23;100.00;102060.47;4928945;29;20546;-68
2023/12/04 04:05:23;;;;;;;32.05;30.55;;;;;;;-0.18;100.00;102060.13;4928186;29;20062;-68
2023/12/04 04:07:50;;;;;;;28.85;27.45;;;;;;;-0.30;100.00;102060.03;4929715;29;20055;-73
2023/12/04 04:10:17;;;;;;;29.98;28.58;;;;;;;-0.18;100.00;102063.63;4928169;29;20471;-73
2023/12/04 04:12:46;;;;;;;40.38;37.60;;;;;;;-0.30;100.00;102059.22;4927289;29;20062;-73
2023/12/04 04:15:13;;;;;;;34.10;32.35;;;;;;;-0.13;100.00;102058.91;4924701;29;20134;-73
2023/12/04 04:17:40;;;;;;;25.02;23.77;;;;;;;-0.37;100.00;102053.53;4923682;29;20055;-68
2023/12/04 04:20:10;;;;;;;26.25;24.92;;;;;;;-0.32;100.00;102061.91;4927508;29;20043;-67
2023/12/04 04:22:40;;;;;;;25.15;23.58;;;;;;;-0.40;100.00;102066.78;4927368;29;20059;-68
2023/12/04 04:25:08;;;;;;;22.50;21.30;;;;;;;-0.50;100.00;102055.31;4923758;29;20130;-68
2023/12/04 04:27:35;;;;;;;22.08;20.98;;;;;;;-0.46;100.00;102064.59;4924106;29;20059;-68
2023/12/04 04:30:02;;;;;;;23.35;22.08;;;;;;;-0.49;100.00;102068.25;4924268;29;20440;-68
2023/12/04 04:32:29;;;;;;;25.88;24.58;;;;;;;-0.46;100.00;102075.88;4923694;29;20055;-68
2023/12/04 04:34:56;;;;;;;29.10;27.63;;;;;;;-0.59;100.00;102085.44;4923790;29;20048;-68
2023/12/04 04:37:23;;;;;;;25.60;24.30;;;;;;;-0.45;100.00;102074.13;4924472;29;20059;-68
2023/12/04 04:39:51;;;;;;;26.10;24.90;;;;;;;-0.59;100.00;102084.63;4928458;29;20095;-68
2023/12/04 04:42:19;;;;;;;29.40;28.00;;;;;;;-0.66;100.00;102096.41;4928752;29;20062;-68
2023/12/04 04:44:45;;;;;;;29.35;27.95;;;;;;;-0.84;100.00;102094.03;4925043;29;20078;-69
2023/12/04 04:47:12;;;;;;;30.33;28.92;;;;;;;-0.64;100.00;102099.72;4924778;29;20056;-68
2023/12/04 04:49:39;;;;;;;19.40;18.50;;;;;;;-0.61;100.00;102096.91;4927368;29;21765;-68
2023/12/04 04:52:08;;;;;;;26.77;24.67;;;;;;;-0.64;100.00;102095.34;4932210;29;20055;-68
2023/12/04 04:54:35;;;;;;;26.17;24.48;;;;;;;-0.73;100.00;102096.78;4929670;29;20062;-73
2023/12/04 04:57:04;;;;;;;28.98;26.88;;;;;;;-0.82;100.00;102099.97;4931098;29;20134;-73
2023/12/04 04:59:31;;;;;;;27.15;25.45;;;;;;;-0.88;100.00;102110.78;4928055;29;20512;-73
2023/12/04 05:01:59;;;;;;;24.25;22.08;;;;;;;-0.77;100.00;102115.34;4932552;29;20421;-73
2023/12/04 05:04:26;;;;;;;27.95;25.83;;;;;;;-1.04;100.00;102117.91;4932545;29;20074;-73
2023/12/04 05:06:56;;;;;;;35.72;32.85;;;;;;;-1.39;100.00;102120.97;4931527;29;20059;-73
2023/12/04 05:09:24;;;;;;;33.40;31.00;;;;;;;-0.97;100.00;102124.41;4931223;29;20094;-73
2023/12/04 05:11:51;;;;;;;45.45;42.15;;;;;;;-1.02;100.00;102119.50;4930535;29;20509;-73
2023/12/04 05:14:19;;;;;;;23.60;21.60;;;;;;;-1.13;100.00;102128.94;4931152;29;20140;-73
2023/12/04 05:16:46;;;;;;;21.65;19.85;;;;;;;-1.04;100.00;102126.56;4928522;29;20051;-73
2023/12/04 05:19:13;;;;;;;21.90;20.60;;;;;;;-0.99;100.00;102129.75;4928047;29;20107;-73
2023/12/04 05:21:40;;;;;;;25.50;24.02;;;;;;;-0.84;100.00;102133.16;4924897;29;20059;-73
2023/12/04 05:24:08;;;;;;;20.55;19.35;;;;;;;-0.86;100.00;102140.25;4925429;29;20056;-73
2023/12/04 05:26:35;;;;;;;20.52;19.33;;;;;;;-0.97;100.00;102138.31;4927472;29;20059;-72
2023/12/04 05:29:02;;;;;;;21.30;20.10;;;;;;;-1.08;100.00;102147.75;4924372;29;20051;-73
2023/12/04 05:31:30;;;;;;;22.20;20.50;;;;;;;-1.18;100.00;102144.84;4928617;29;20087;-73
2023/12/04 05:33:57;;;;;;;21.25;19.92;;;;;;;-1.39;100.00;102144.41;4922210;29;20435;-73
2023/12/04 05:36:24;;;;;;;18.70;17.70;;;;;;;-1.42;100.00;102137.63;4927214;29;20060;-73
2023/12/04 05:38:53;;;;;;;19.23;17.90;;;;;;;-1.02;100.00;102147.38;4924077;29;20147;-73
2023/12/04 05:41:20;;;;;;;17.73;16.73;;;;;;;-1.16;100.00;102146.44;4925801;29;20051;-73
2023/12/04 05:43:47;;;;;;;18.48;17.27;;;;;;;-1.29;100.00;102142.09;4927685;29;20059;-73
2023/12/04 05:46:14;;;;;;;18.77;17.67;;;;;;;-1.28;100.00;102143.75;4928512;29;20115;-73
2023/12/04 05:48:43;;;;;;;19.20;18.10;;;;;;;-1.64;100.00;102140.66;4922912;29;20062;-73
2023/12/04 05:51:12;;;;;;;18.15;17.05;;;;;;;-1.53;100.00;102140.03;4925648;29;20043;-73
2023/12/04 05:53:39;;;;;;;17.92;16.83;;;;;;;-1.48;100.00;102142.38;4921194;29;20189;-73
2023/12/04 05:56:08;;;;;;;18.98;17.83;;;;;;;-1.46;100.00;102162.16;4918088;29;20063;-73
2023/12/04 05:58:35;;;;;;;18.75;17.55;;;;;;;-1.33;100.00;102159.69;4921095;29;20453;-73
2023/12/04 06:01:03;;;;;;;18.60;17.40;;;;;;;-1.41;100.00;102154.91;4924296;29;20440;-73
2023/12/04 06:03:30;;;;;;;17.85;16.70;;;;;;;-1.46;100.00;102170.00;4925701;29;20090;-73
2023/12/04 06:05:58;;;;;;;16.88;15.82;;;;;;;-1.52;100.00;102161.72;4923596;29;20436;-73
2023/12/04 06:08:26;;;;;;;18.90;17.77;;;;;;;-1.39;100.00;102170.47;4930694;29;20055;-73
2023/12/04 06:10:53;;;;;;;19.65;18.45;;;;;;;-1.53;100.00;102173.06;4926167;29;20996;-73
2023/12/04 06:13:21;;;;;;;19.85;18.73;;;;;;;-1.69;100.00;102171.38;4932281;29;20059;-67
2023/12/04 06:15:48;;;;;;;18.60;17.40;;;;;;;-1.62;100.00;102169.25;4921255;29;20497;-68
2023/12/04 06:18:15;;;;;;;20.58;19.27;;;;;;;0.29;100.00;102174.53;4927028;29;20079;-68
2023/12/04 06:20:42;;;;;;;18.38;17.33;;;;;;;-1.49;100.00;102179.75;4923681;29;20063;-73
2023/12/04 06:23:11;;;;;;;19.10;18.00;;;;;;;-1.70;100.00;102181.88;4919578;29;20460;-73
2023/12/04 06:25:39;;;;;;;19.35;18.25;;;;;;;-1.74;100.00;102189.03;4926447;29;20166;-73
2023/12/04 06:28:06;;;;;;;19.02;17.95;;;;;;;-1.70;100.00;102181.88;4919661;29;20052;-73
2023/12/04 06:30:34;;;;;;;23.08;21.67;;;;;;;1.69;100.00;102186.50;4922365;29;20055;-73
2023/12/04 06:33:01;;;;;;;19.88;18.77;;;;;;;-0.98;100.00;102188.78;4926440;29;20051;-73
2023/12/04 06:35:29;;;;;;;21.33;20.10;;;;;;;-1.20;100.00;102184.06;4916810;29;20500;-73
2023/12/04 06:37:59;;;;;;;22.85;21.65;;;;;;;-1.16;100.00;102182.94;4929543;29;20059;-73
2023/12/04 06:40:28;;;;;;;22.80;21.58;;;;;;;-1.08;100.00;102192.91;4924970;29;20051;-73
2023/12/04 06:42:56;;;;;;;22.10;20.92;;;;;;;-0.90;100.00;102188.34;4914991;29;20070;-73
2023/12/04 06:45:23;;;;;;;25.02;23.58;;;;;;;-0.58;100.00;102201.13;4919826;29;20063;-73
2023/12/04 06:47:55;;;;;;;27.23;25.30;;;;;;;-0.49;100.00;102197.91;4916691;29;20048;-69
2023/12/04 06:50:22;;;;;;;29.35;27.13;;;;;;;-0.32;100.00;102207.31;4921318;29;20044;-73
2023/12/04 06:52:49;;;;;;;29.85;27.15;;;;;;;0.00;100.00;102213.06;4923662;29;20511;-73
2023/12/04 06:55:16;;;;;;;28.05;26.45;;;;;;;0.18;100.00;102214.47;4925802;29;20071;-73
2023/12/04 06:57:44;;;;;;;28.85;27.08;;;;;;;0.50;100.00;102208.00;4925119;29;20052;-73
2023/12/04 07:00:14;;;;;;;22.23;20.88;;;;;;;1.08;100.00;102211.84;4927122;29;20504;-73
2023/12/04 07:02:41;;;;;;;32.17;30.30;;;;;;;1.33;100.00;102216.16;4922378;29;20052;-73
2023/12/04 07:05:11;;;;;;;26.95;25.20;;;;;;;1.63;100.00;102214.91;4923576;29;20052;-73
2023/12/04 07:07:38;;;;;;;25.33;23.83;;;;;;;1.92;100.00;102220.66;4916324;29;20052;-73
2023/12/04 07:10:09;;;;;;;30.75;28.95;;;;;;;2.18;100.00;102219.59;4924878;29;20048;-73
2023/12/04 07:12:36;;;;;;;29.38;27.15;;;;;;;1.79;100.00;102216.34;4925037;29;20055;-73
2023/12/04 07:15:04;;;;;;;26.90;25.30;;;;;;;2.47;100.00;102229.66;4925301;29;20431;-73
2023/12/04 07:17:32;;;;;;;40.15;37.95;;;;;;;3.05;100.00;102214.69;4919065;29;20062;-73
2023/12/04 07:19:58;;;;;;;38.58;36.38;;;;;;;3.21;100.00;102224.84;4923452;29;20115;-73
2023/12/04 07:22:25;;;;;;;33.10;31.20;;;;;;;3.03;100.00;102227.09;4921070;29;20452;-73
2023/12/04 07:24:52;;;;;;;31.58;29.63;;;;;;;2.57;100.00;102227.16;4919706;29;20523;-74
2023/12/04 07:27:19;;;;;;;28.20;26.60;;;;;;;2.13;100.00;102226.94;4923990;29;20188;-73
2023/12/04 07:29:46;;;;;;;30.58;28.77;;;;;;;2.88;100.00;102233.56;4919000;29;20067;-68
2023/12/04 07:32:19;;;;;;;28.55;26.90;;;;;;;2.21;100.00;102229.84;4925275;29;20448;-69
2023/12/04 07:34:46;;;;;;;26.55;25.15;;;;;;;2.78;100.00;102240.44;4925299;29;20052;-72
2023/12/04 07:37:14;;;;;;;25.63;24.23;;;;;;;4.19;100.00;102243.19;4920241;29;20063;-73
2023/12/04 07:39:43;;;;;;;23.77;22.05;;;;;;;4.18;100.00;102240.69;4926919;29;20191;-73
2023/12/04 07:42:10;;;;;;;24.83;23.52;;;;;;;4.59;100.00;102243.31;4923975;29;20524;-73
2023/12/04 07:44:38;;;;;;;27.30;25.95;;;;;;;4.82;100.00;102244.00;4921326;29;20345;-74
2023/12/04 07:47:05;;;;;;;27.55;26.05;;;;;;;3.95;100.00;102245.19;4920425;29;20047;-73
2023/12/04 07:49:35;;;;;;;32.65;31.02;;;;;;;3.27;100.00;102234.00;4924070;29;20146;-74
2023/12/04 07:52:02;;;;;;;30.95;29.27;;;;;;;3.03;100.00;102249.91;4926555;29;20047;-73
2023/12/04 07:54:30;;;;;;;26.00;24.40;;;;;;;2.65;100.00;102249.25;4920404;29;20475;-73
2023/12/04 07:56:57;;;;;;;27.27;25.58;;;;;;;4.65;100.00;102243.75;4918069;29;20108;-73
2023/12/04 07:59:24;;;;;;;30.80;28.67;;;;;;;3.67;100.00;102237.75;4923057;29;20151;-73
2023/12/04 08:01:52;;;;;;;28.92;27.20;;;;;;;3.32;100.00;102247.59;4924928;29;20126;-73
2023/12/04 08:04:20;;;;;;;27.33;25.52;;;;;;;3.00;100.00;102245.72;4921135;29;20063;-73
2023/12/04 08:06:49;;;;;;;20.63;19.33;;;;;;;3.53;100.00;102243.28;4919113;29;20098;-73
2023/12/04 08:09:17;;;;;;;22.80;21.45;;;;;;;2.80;100.00;102242.00;4922702;29;20052;-71
2023/12/04 08:11:44;;;;;;;23.92;22.33;;;;;;;3.12;100.00;102243.94;4919955;29;20437;-73
2023/12/04 08:14:11;;;;;;;25.45;23.85;;;;;;;2.92;100.00;102241.06;4925749;29;20284;-73
2023/12/04 08:16:39;;;;;;;25.55;23.95;;;;;;;2.97;100.00;102240.72;4918681;29;20052;-73
2023/12/04 08:19:06;;;;;;;34.00;32.10;;;;;;;3.66;100.00;102246.59;4923438;29;20590;-73
2023/12/04 08:21:36;;;;;;;32.30;30.50;;;;;;;4.50;100.00;102244.09;4918617;29;20062;-73
2023/12/04 08:24:05;;;;;;;38.67;36.33;;;;;;;5.41;100.00;102236.31;4923736;29;20567;-73
2023/12/04 08:26:32;;;;;;;37.33;35.22;;;;;;;4.93;100.00;102235.19;4921511;29;20512;-73
2023/12/04 08:28:59;;;;;;;34.60;32.70;;;;;;;2.69;100.00;102237.59;4919407;29;20087;-73
2023/12/04 08:31:26;;;;;;;32.75;30.95;;;;;;;6.02;100.00;102236.16;4913409;29;20128;-73
2023/12/04 08:33:53;;;;;;;38.72;36.72;;;;;;;3.67;100.00;102244.81;4924069;28;20178;-73
2023/12/04 08:36:21;;;;;;;28.02;26.52;;;;;;;3.29;100.00;102240.78;4924902;29;20047;-73
2023/12/04 08:38:48;;;;;;;20.45;19.25;;;;;;;5.07;100.00;102236.63;4918726;29;20374;-73
2023/12/04 08:41:16;;;;;;;20.95;19.75;;;;;;;5.94;100.00;102236.03;4917990;29;20147;-73
2023/12/04 08:43:44;;;;;;;22.80;21.50;;;;;;;6.61;100.00;102227.19;4916614;29;20055;-73
2023/12/04 08:46:13;;;;;;;22.42;21.02;;;;;;;6.32;100.00;102240.44;4928887;29;20315;-73
2023/12/04 08:48:41;;;;;;;33.47;31.65;;;;;;;4.99;100.00;102231.19;4918115;29;20387;-74
2023/12/04 08:51:09;;;;;;;30.63;28.67;;;;;;;4.10;100.00;102225.53;4916275;29;20087;-68
2023/12/04 08:53:36;;;;;;;34.80;32.70;;;;;;;6.51;100.00;102221.09;4919257;29;20068;-69
2023/12/04 08:56:04;;;;;;;31.15;29.38;;;;;;;5.14;100.00;102223.75;4923453;29;20538;-68
2023/12/04 08:58:32;;;;;;;29.15;27.55;;;;;;;5.62;100.00;102215.97;4913836;29;20095;-68
2023/12/04 09:00:59;;;;;;;32.58;30.67;;;;;;;6.82;100.00;102207.66;4927326;29;20082;-68
2023/12/04 09:03:26;;;;;;;31.23;29.30;;;;;;;3.88;100.00;102213.31;4923430;29;20100;-68
2023/12/04 09:05:55;;;;;;;19.30;18.10;;;;;;;6.01;100.00;102208.09;4920938;29;20206;-70
2023/12/04 09:08:23;;;;;;;22.00;20.70;;;;;;;7.54;100.00;102201.59;4919397;29;20058;-69
2023/12/04 09:10:50;;;;;;;34.35;32.60;;;;;;;7.45;100.00;102205.13;4922507;29;20508;-69
2023/12/04 09:13:17;;;;;;;34.65;32.95;;;;;;;4.27;100.00;102203.09;4920365;29;20047;-68
2023/12/04 09:15:46;;;;;;;28.48;26.80;;;;;;;3.80;100.00;102207.84;4922643;29;20051;-68
2023/12/04 09:18:13;;;;;;;32.05;30.52;;;;;;;3.86;100.00;102210.81;4918536;29;20059;-68
2023/12/04 09:20:40;;;;;;;36.88;35.00;;;;;;;7.38;100.00;102203.22;4922874;29;20504;-69
2023/12/04 09:23:07;;;;;;;28.77;27.13;;;;;;;5.43;100.00;102203.59;4924539;29;20052;-69
2023/12/04 09:25:34;;;;;;;20.13;18.92;;;;;;;4.72;100.00;102198.38;4925651;29;20557;-69
2023/12/04 09:28:02;;;;;;;22.85;21.55;;;;;;;4.08;100.00;102199.34;4920535;29;20056;-69
2023/12/04 09:30:29;;;;;;;36.22;34.33;;;;;;;6.46;100.00;102196.09;4924383;29;20444;-70
2023/12/04 09:32:58;;;;;;;33.33;31.63;;;;;;;6.91;100.00;102193.59;4918212;29;20450;-68
2023/12/04 09:35:24;;;;;;;41.95;39.85;;;;;;;7.04;100.00;102187.97;4924547;29;20572;-68
2023/12/04 09:37:51;;;;;;;36.53;34.72;;;;;;;6.63;100.00;102188.28;4927870;29;20067;-69
2023/12/04 09:40:19;;;;;;;32.70;31.05;;;;;;;6.01;100.00;102187.00;4924686;29;20060;-68
2023/12/04 09:42:46;;;;;;;33.95;32.15;;;;;;;6.49;100.00;102182.63;4926527;29;20142;-68
2023/12/04 09:45:14;;;;;;;37.15;35.25;;;;;;;5.84;100.00;102179.75;4928836;29;20444;-68
2023/12/04 09:47:43;;;;;;;27.17;25.58;;;;;;;5.29;100.00;102175.00;4922839;29;20064;-69
2023/12/04 09:50:12;;;;;;;19.60;18.40;;;;;;;5.19;100.00;102174.16;4922143;29;20062;-69
2023/12/04 09:52:40;;;;;;;31.55;29.95;;;;;;;3.76;100.00;102170.47;4925466;29;20455;-68
2023/12/04 09:55:07;;;;;;;34.67;32.97;;;;;;;6.72;100.00;102172.53;4923003;29;20055;-69
2023/12/04 09:57:35;;;;;;;32.08;30.25;;;;;;;5.40;100.00;102174.88;4923252;29;20048;-69
2023/12/04 10:00:04;;;;;;;34.10;32.40;;;;;;;5.92;100.00;102174.63;4924921;29;20056;-68
2023/12/04 10:02:32;;;;;;;31.83;30.23;;;;;;;7.23;100.00;102177.31;4921020;29;20771;-69
2023/12/04 10:05:00;;;;;;;36.50;34.70;;;;;;;4.89;100.00;102173.22;4922113;29;20060;-72
2023/12/04 10:07:28;;;;;;;33.45;31.75;;;;;;;6.73;100.00;102174.22;4924321;29;20170;-68
2023/12/04 10:09:55;;;;;;;31.67;29.88;;;;;;;8.18;100.00;102172.38;4925267;29;20047;-73
2023/12/04 10:12:23;;;;;;;32.53;30.83;;;;;;;7.42;100.00;102160.47;4923708;29;20052;-73
2023/12/04 10:15:04;;;;;;;36.03;34.22;;;;;;;6.57;100.00;102166.91;4924116;29;20564;-73
2023/12/04 10:17:35;;;;;;;29.33;27.80;;;;;;;5.63;100.00;102170.19;4925806;29;20147;-72
2023/12/04 10:20:11;;;;;;;29.30;27.70;;;;;;;5.77;100.00;102162.84;4930931;29;20048;-68
2023/12/04 10:22:40;;;;;;;30.75;29.05;;;;;;;5.28;100.00;102168.06;4927491;29;20146;-68
2023/12/04 10:25:18;;;;;;;22.45;21.05;;;;;;;8.36;100.00;102164.41;4928102;29;20047;-68
2023/12/04 10:27:45;;;;;;;20.88;19.58;;;;;;;5.39;100.00;102165.31;4925029;29;20048;-69
2023/12/04 10:30:24;;;;;;;21.35;19.95;;;;;;;6.65;100.00;102153.78;4919618;29;20055;-73
2023/12/04 10:32:54;;;;;;;22.90;21.40;;;;;;;6.84;100.00;102151.09;4923001;29;20044;-69
2023/12/04 10:35:22;;;;;;;23.45;21.75;;;;;;;5.96;100.00;102161.06;4926120;29;20485;-73
2023/12/04 10:37:55;;;;;;;23.52;22.02;;;;;;;6.25;100.00;102156.72;4920697;29;20056;-68
2023/12/04 10:40:26;;;;;;;24.20;22.50;;;;;;;6.47;100.00;102156.34;4923150;29;20091;-73
2023/12/04 10:43:11;;;;;;;26.42;24.63;;;;;;;6.09;100.00;102155.50;4925851;29;20111;-69
2023/12/04 10:45:39;;;;;;;25.50;23.80;;;;;;;7.52;100.00;102160.41;4924697;29;20414;-68
2023/12/04 10:48:07;;;;;;;24.75;23.15;;;;;;;7.00;100.00;102161.00;4924261;29;20048;-69
2023/12/04 10:50:35;;;;;;;23.30;21.90;;;;;;;6.13;100.00;102164.78;4920901;29;20051;-73
2023/12/04 10:53:05;;;;;;;22.15;20.75;;;;;;;5.97;100.00;102159.25;4921073;29;20056;-73
2023/12/04 10:55:32;;;;;;;23.83;22.33;;;;;;;5.22;100.00;102158.06;4923886;29;20056;-68
2023/12/04 10:58:01;;;;;;;23.90;22.40;;;;;;;4.08;100.00;102165.16;4921026;29;20083;-73
2023/12/04 11:00:32;;;;;;;22.83;21.42;;;;;;;3.77;100.00;102166.88;4926760;29;20451;-72
2023/12/04 11:03:06;;;;;;;24.30;22.80;;;;;;;6.26;100.00;102155.72;4922546;29;20433;-73
2023/12/04 11:05:37;;;;;;;27.67;26.08;;;;;;;4.78;100.00;102152.25;4921060;29;20071;-72
2023/12/04 11:08:12;;;;;;;26.80;25.05;;;;;;;5.55;100.00;102163.94;4919933;29;20111;-73
2023/12/04 11:10:51;;;;;;;24.77;23.38;;;;;;;7.01;100.00;102160.03;4919085;29;20505;-73